Shannon, Ireland

5:54 PM IST on August 29, 2015 (GMT +0100)
Shannon | | Change Station
CLOSE
Current Station
Airport
Location: Shannon,
Elevation: 66 ft
Nearby Weather Stations

Elev 66 ft 52.70 °N, 8.92 °W | Updated 24 minutes ago

Scattered Clouds
Scattered Clouds
64 °F
Feels Like 64 °F
N
12
Wind Variable Wind from West

Today
High -- | Low -- °F
--% Chance of Precip.
Yesterday
High -- | Low -- °F
Precip. -- in
6:40 AM 8:31 PM
Full, 100% visible
Pressure 30.01 in
Visibility 6.2 miles
Clouds Few 1000 ft
Scattered Clouds 4000 ft
Dew Point 52 °F
Humidity 64%
Rainfall 0.00 in
Snow Depth Not available.
UV 2 out of 12
Pollen Not available.
Air Quality Not available.
Flu Activity Not available.
METAR EINN 291630Z 27010KT 9999 FEW010 SCT040 18/11 Q1016 NOSIG
Pressure 30.01 in
Visibility 6.2 miles
Clouds Few 1000 ft
Scattered Clouds 4000 ft
Dew Point 52 °F
Humidity 64%
Rainfall 0.00 in
Snow Depth Not available.
UV 2 out of 12
Pollen Not available.
Air Quality Not available.
Flu Activity Not available.
METAR EINN 291630Z 27010KT 9999 FEW010 SCT040 18/11 Q1016 NOSIG

10-Day Weather Forecast

×

Almanac

Astronomy

Aug. 29, 2015 Rise Set
Actual Time
Civil Twilight
Nautical Twilight
Astronomical Twilight
Moon
Length of Visible Light
Length of Day
Tomorrow will be .
, % of the Moon is Illuminated

Today's Extremes

Country Highs Country Lows

Community

WunderPhotos

Upload Photos

1,850,722 photos uploaded!

WunderBlogs® & News

Nearby

Air Quality

  Air Quality AQ Index Pollutant
Not available.

Snow Depth

Station Depth Elevation

Earthquake Activity

City Distance Mag. Time & Date
Minimum magnitude displayed is 2.5.

Coastal Water Temperatures

Place Temperature

Stations

Nearby Weather Stations

Station Location Temp. Windchill Dew Point Humidity Wind Precip. Elev Updated Type